createdAt,value
2023-08-28T00:02:52.376Z,11.61
2023-08-28T00:06:16.100Z,11.61
2023-08-28T00:09:40.831Z,11.69
2023-08-28T00:13:04.356Z,11.61
2023-08-28T00:16:26.986Z,11.52
2023-08-28T00:19:49.232Z,11.45
2023-08-28T00:23:12.534Z,11.44
2023-08-28T00:26:34.748Z,11.47
2023-08-28T00:29:57.905Z,11.44
2023-08-28T00:33:20.276Z,11.43
2023-08-28T00:36:43.766Z,10.90
2023-08-28T00:40:08.277Z,11.25
2023-08-28T00:43:31.711Z,10.71
2023-08-28T00:46:54.484Z,11.29
2023-08-28T00:50:17.431Z,11.37
2023-08-28T00:53:41.348Z,11.46
2023-08-28T00:57:05.719Z,11.49
2023-08-28T01:00:29.100Z,11.42
2023-08-28T01:03:51.481Z,11.29
2023-08-28T01:07:24.195Z,11.30
2023-08-28T01:10:52.578Z,11.35
2023-08-28T01:14:27.803Z,11.34
2023-08-28T01:18:01.467Z,11.41
2023-08-28T01:21:25.704Z,11.43
2023-08-28T01:24:52.735Z,11.40
2023-08-28T01:28:15.201Z,11.35
2023-08-28T01:31:37.652Z,11.18
2023-08-28T01:35:02.089Z,11.34
2023-08-28T01:38:32.099Z,11.33
2023-08-28T01:41:56.218Z,11.29
2023-08-28T01:45:21.766Z,10.96
2023-08-28T01:48:53.473Z,10.91
2023-08-28T01:52:15.812Z,11.13
2023-08-28T01:55:57.697Z,10.75
2023-08-28T01:59:20.172Z,11.08
2023-08-28T02:02:44.722Z,11.09
2023-08-28T02:06:08.464Z,11.09
2023-08-28T02:09:31.737Z,11.05
2023-08-28T02:12:54.063Z,11.00
2023-08-28T02:16:20.611Z,11.00
2023-08-28T02:19:44.320Z,10.99
2023-08-28T02:23:06.623Z,11.04
2023-08-28T02:26:29.644Z,10.99
2023-08-28T02:29:52.716Z,10.93
2023-08-28T02:33:15.643Z,10.83
2023-08-28T02:36:39.141Z,10.75
2023-08-28T02:40:04.387Z,10.63
2023-08-28T02:43:26.637Z,10.71
2023-08-28T02:46:48.925Z,10.74
2023-08-28T02:50:13.345Z,10.82
2023-08-28T02:53:36.682Z,10.70
2023-08-28T02:56:58.940Z,10.68
2023-08-28T03:00:21.487Z,10.68
2023-08-28T03:03:44.373Z,10.73
2023-08-28T03:07:07.695Z,10.52
2023-08-28T03:10:32.371Z,10.65
2023-08-28T03:13:56.019Z,10.50
2023-08-28T03:17:19.290Z,10.47
2023-08-28T03:20:42.384Z,10.31
2023-08-28T03:24:05.099Z,10.41
2023-08-28T03:27:27.405Z,10.38
2023-08-28T03:30:49.697Z,10.32
2023-08-28T03:34:12.180Z,10.34
2023-08-28T03:37:34.421Z,10.38
2023-08-28T03:40:57.426Z,10.41
2023-08-28T03:44:19.732Z,10.43
2023-08-28T03:47:42.243Z,10.27
2023-08-28T03:51:04.611Z,10.38
2023-08-28T03:54:29.007Z,10.32
2023-08-28T03:57:52.688Z,10.25
2023-08-28T04:01:15.330Z,10.19
2023-08-28T04:04:38.821Z,10.03
2023-08-28T04:08:01.267Z,10.16
2023-08-28T04:11:23.559Z,10.18
2023-08-28T04:14:45.779Z,10.08
2023-08-28T04:18:09.120Z,10.18
2023-08-28T04:21:31.639Z,10.20
2023-08-28T04:24:54.743Z,10.14
2023-08-28T04:28:17.285Z,10.08
2023-08-28T04:31:40.066Z,10.07
2023-08-28T04:35:03.331Z,10.29
2023-08-28T04:38:27.197Z,10.42
2023-08-28T04:41:49.685Z,10.54
2023-08-28T04:45:11.953Z,10.58
2023-08-28T04:48:34.236Z,10.68
2023-08-28T04:51:56.636Z,10.82
2023-08-28T04:55:18.861Z,10.90
2023-08-28T04:58:41.789Z,10.98
2023-08-28T05:02:04.298Z,11.02
2023-08-28T05:05:26.547Z,11.12
2023-08-28T05:08:48.881Z,11.12
2023-08-28T05:12:11.196Z,11.11
2023-08-28T05:15:33.523Z,11.16
2023-08-28T05:18:55.789Z,11.29
2023-08-28T05:22:18.034Z,11.19
2023-08-28T05:25:40.429Z,11.43
2023-08-28T05:29:03.019Z,11.48
2023-08-28T05:32:25.369Z,11.62
2023-08-28T05:35:47.701Z,11.74
2023-08-28T05:39:10.075Z,11.85
2023-08-28T05:42:32.566Z,12.05
2023-08-28T05:45:54.835Z,12.17
2023-08-28T05:49:17.120Z,12.20
2023-08-28T05:52:39.460Z,12.30
2023-08-28T05:56:01.798Z,12.45
2023-08-28T05:59:24.125Z,12.52
2023-08-28T06:02:46.507Z,12.56
2023-08-28T06:06:08.854Z,12.57
2023-08-28T06:09:32.540Z,12.63
2023-08-28T06:12:54.898Z,12.69
2023-08-28T06:16:18.218Z,12.75
2023-08-28T06:19:40.505Z,12.96
2023-08-28T06:23:03.044Z,13.19
2023-08-28T06:26:25.524Z,13.26
2023-08-28T06:29:50.382Z,13.50
2023-08-28T06:33:12.804Z,13.75
2023-08-28T06:36:35.082Z,13.98
2023-08-28T06:39:57.434Z,14.17
2023-08-28T06:43:20.042Z,14.32
2023-08-28T06:46:42.391Z,14.46
2023-08-28T06:50:04.945Z,14.52
2023-08-28T06:53:27.240Z,14.69
2023-08-28T06:56:49.539Z,14.85
2023-08-28T07:00:12.471Z,14.96
2023-08-28T07:03:34.800Z,15.01
2023-08-28T07:06:57.230Z,15.13
2023-08-28T07:10:19.490Z,15.38
2023-08-28T07:13:41.954Z,15.77
2023-08-28T07:17:04.378Z,16.08
2023-08-28T07:20:26.761Z,16.52
2023-08-28T07:23:51.750Z,16.92
2023-08-28T07:27:14.013Z,17.12
2023-08-28T07:30:36.813Z,17.20
2023-08-28T07:34:00.370Z,17.34
2023-08-28T07:37:22.645Z,17.47
2023-08-28T07:40:47.156Z,17.57
2023-08-28T07:44:10.620Z,17.90
2023-08-28T07:47:32.912Z,18.21
2023-08-28T07:50:56.295Z,18.62
2023-08-28T07:54:18.847Z,18.83
2023-08-28T07:57:41.163Z,19.17
2023-08-28T08:01:03.432Z,19.37
2023-08-28T08:04:27.276Z,19.12
2023-08-28T08:07:50.172Z,19.21
2023-08-28T08:11:13.713Z,19.23
2023-08-28T08:14:36.121Z,19.40
2023-08-28T08:17:58.567Z,19.55
2023-08-28T08:21:21.195Z,19.72
2023-08-28T08:24:43.637Z,19.83
2023-08-28T08:28:06.069Z,20.00
2023-08-28T08:31:28.430Z,20.15
2023-08-28T08:34:52.012Z,19.92
2023-08-28T08:38:14.306Z,20.31
2023-08-28T08:41:37.519Z,20.66
2023-08-28T08:44:59.839Z,20.88
2023-08-28T08:48:25.860Z,21.01
2023-08-28T08:51:52.230Z,21.40
2023-08-28T08:55:48.572Z,21.52
2023-08-28T08:59:11.582Z,21.61
2023-08-28T09:02:34.628Z,22.17
2023-08-28T09:05:58.778Z,22.37
2023-08-28T09:09:21.266Z,22.37
2023-08-28T09:12:44.683Z,22.35
2023-08-28T09:16:07.171Z,22.46
2023-08-28T09:19:31.426Z,22.39
2023-08-28T09:22:56.120Z,22.69
2023-08-28T09:26:21.151Z,22.80
2023-08-28T09:29:43.521Z,22.91
2023-08-28T09:33:07.720Z,23.12
2023-08-28T09:36:33.745Z,23.41
2023-08-28T09:39:58.523Z,23.79
2023-08-28T09:43:20.861Z,24.20
2023-08-28T09:46:45.024Z,24.55
2023-08-28T09:50:08.348Z,25.06
2023-08-28T09:53:32.217Z,25.33
2023-08-28T09:56:54.624Z,25.33
2023-08-28T10:00:17.209Z,25.49
2023-08-28T10:03:39.673Z,25.25
2023-08-28T10:07:04.276Z,25.09
2023-08-28T10:10:27.199Z,25.20
2023-08-28T10:13:50.148Z,25.39
2023-08-28T10:17:15.967Z,25.47
2023-08-28T10:20:40.352Z,25.41
2023-08-28T10:24:03.571Z,25.19
2023-08-28T10:27:26.903Z,25.25
2023-08-28T10:30:52.966Z,25.32
2023-08-28T10:34:16.587Z,25.41
2023-08-28T10:37:40.424Z,25.67
2023-08-28T10:41:04.780Z,25.62
2023-08-28T10:44:28.600Z,25.69
2023-08-28T10:47:52.428Z,26.02
2023-08-28T10:51:15.222Z,26.17
2023-08-28T10:54:44.973Z,26.27
2023-08-28T10:58:07.290Z,26.48
2023-08-28T11:01:51.506Z,26.82
2023-08-28T11:05:17.272Z,26.69
2023-08-28T11:08:40.621Z,26.67
2023-08-28T11:12:02.928Z,26.72
2023-08-28T11:15:30.948Z,26.46
2023-08-28T11:18:58.528Z,26.28
2023-08-28T11:22:46.663Z,25.92
2023-08-28T11:26:28.040Z,25.88
2023-08-28T11:29:50.439Z,26.31
2023-08-28T11:33:12.816Z,26.52
2023-08-28T11:36:40.747Z,26.62
2023-08-28T11:40:09.330Z,26.62
2023-08-28T11:43:36.000Z,26.59
2023-08-28T11:46:58.258Z,26.38
2023-08-28T11:50:20.642Z,26.16
2023-08-28T11:53:44.645Z,26.09
2023-08-28T11:57:08.545Z,25.78
2023-08-28T12:00:47.416Z,26.05
2023-08-28T12:04:24.203Z,25.95
2023-08-28T12:07:53.903Z,25.48
2023-08-28T12:11:21.195Z,25.53
2023-08-28T12:18:24.340Z,25.31
2023-08-28T12:21:49.801Z,25.38
2023-08-28T12:25:18.429Z,25.08
2023-08-28T12:28:42.245Z,25.02
2023-08-28T12:32:08.477Z,24.96
2023-08-28T12:35:38.464Z,25.23
2023-08-28T12:39:01.490Z,25.61
2023-08-28T12:42:23.827Z,25.65
2023-08-28T12:45:46.082Z,25.55
2023-08-28T12:49:08.699Z,25.96
2023-08-28T12:52:31.331Z,26.28
2023-08-28T12:55:53.761Z,26.39
2023-08-28T12:59:17.598Z,26.46
2023-08-28T13:02:40.016Z,26.74
2023-08-28T13:06:05.927Z,26.91
2023-08-28T13:09:28.907Z,26.80
2023-08-28T13:12:54.656Z,26.47
2023-08-28T13:16:31.517Z,26.50
2023-08-28T13:19:54.748Z,26.07
2023-08-28T13:23:19.966Z,25.99
2023-08-28T13:26:42.302Z,25.87
2023-08-28T13:30:08.509Z,26.01
2023-08-28T13:33:30.948Z,26.16
2023-08-28T13:36:54.326Z,26.24
2023-08-28T13:40:17.419Z,26.28
2023-08-28T13:43:40.197Z,26.22
2023-08-28T13:47:02.496Z,25.80
2023-08-28T13:50:25.247Z,25.66
2023-08-28T13:53:47.858Z,25.56
2023-08-28T13:57:11.179Z,25.36
2023-08-28T14:00:34.528Z,25.20
2023-08-28T14:03:57.748Z,25.11
2023-08-28T14:07:24.328Z,24.88
2023-08-28T14:10:50.178Z,24.80
2023-08-28T14:14:15.340Z,24.55
2023-08-28T14:17:53.370Z,24.30
2023-08-28T14:21:57.463Z,24.41
2023-08-28T14:30:13.255Z,24.44
2023-08-28T14:45:57.390Z,24.48
2023-08-28T14:49:35.946Z,24.33
2023-08-28T14:53:09.653Z,24.39
2023-08-28T14:57:12.301Z,24.41
2023-08-28T15:09:39.582Z,24.54
2023-08-28T15:13:27.923Z,24.46
2023-08-28T15:17:20.226Z,24.06
2023-08-28T15:21:16.337Z,23.67
2023-08-28T15:25:02.999Z,23.27
2023-08-28T15:28:39.132Z,23.01
2023-08-28T15:32:24.406Z,22.79
2023-08-28T15:43:58.619Z,22.24
2023-08-28T15:47:55.745Z,21.88
2023-08-28T15:51:18.094Z,21.65
2023-08-28T15:55:06.187Z,21.63
2023-08-28T15:58:31.262Z,21.47
2023-08-28T16:02:03.823Z,21.29
2023-08-28T16:05:29.482Z,21.16
2023-08-28T16:08:52.967Z,21.14
2023-08-28T16:12:15.315Z,20.90
2023-08-28T16:15:39.568Z,20.84
2023-08-28T16:19:03.400Z,20.81
2023-08-28T16:22:25.714Z,20.90
2023-08-28T16:25:49.615Z,21.02
2023-08-28T16:29:11.863Z,21.12
2023-08-28T16:32:34.290Z,21.25
2023-08-28T16:35:56.834Z,21.19
2023-08-28T16:39:19.090Z,21.14
2023-08-28T16:42:41.593Z,20.73
2023-08-28T16:46:03.930Z,20.87
2023-08-28T16:49:26.420Z,20.83
2023-08-28T16:52:48.770Z,20.78
2023-08-28T16:56:11.078Z,20.65
2023-08-28T16:59:33.383Z,20.54
2023-08-28T17:02:57.213Z,20.37
2023-08-28T17:06:19.538Z,19.89
2023-08-28T17:09:41.830Z,19.78
2023-08-28T17:13:04.406Z,19.82
2023-08-28T17:16:27.100Z,19.75
2023-08-28T17:19:49.434Z,19.62
2023-08-28T17:23:11.724Z,19.67
2023-08-28T17:26:34.028Z,19.61
2023-08-28T17:29:57.083Z,19.57
2023-08-28T17:33:19.328Z,19.54
2023-08-28T17:36:41.684Z,19.50
2023-08-28T17:40:06.555Z,19.38
2023-08-28T17:43:29.783Z,19.31
2023-08-28T17:46:52.722Z,19.19
2023-08-28T17:50:15.296Z,19.06
2023-08-28T17:53:38.017Z,18.93
2023-08-28T17:57:00.281Z,18.78
2023-08-28T18:00:22.640Z,18.61
2023-08-28T18:03:45.381Z,18.45
2023-08-28T18:07:08.299Z,18.36
2023-08-28T18:10:31.866Z,18.27
2023-08-28T18:13:54.232Z,18.21
2023-08-28T18:17:17.257Z,18.17
2023-08-28T18:20:45.376Z,18.09
2023-08-28T18:24:08.175Z,17.80
2023-08-28T18:27:30.451Z,17.81
2023-08-28T18:30:52.691Z,17.72
2023-08-28T18:34:17.907Z,17.66
2023-08-28T18:37:40.228Z,17.58
2023-08-28T18:41:02.555Z,17.41
2023-08-28T18:44:24.922Z,17.39
2023-08-28T18:47:48.261Z,17.27
2023-08-28T18:51:10.531Z,17.21
2023-08-28T18:54:33.084Z,17.11
2023-08-28T18:57:55.311Z,16.99
2023-08-28T19:01:17.625Z,16.83
2023-08-28T19:04:43.163Z,16.72
2023-08-28T19:08:05.972Z,16.71
2023-08-28T19:11:28.368Z,16.66
2023-08-28T19:14:50.687Z,16.58
2023-08-28T19:18:12.990Z,16.58
2023-08-28T19:21:35.244Z,16.30
2023-08-28T19:24:58.906Z,15.93
2023-08-28T19:28:21.426Z,16.08
2023-08-28T19:31:45.124Z,16.00
2023-08-28T19:35:14.780Z,15.96
2023-08-28T19:38:37.307Z,15.77
2023-08-28T19:42:00.211Z,15.65
2023-08-28T19:45:25.219Z,15.60
2023-08-28T19:48:50.930Z,15.54
2023-08-28T19:52:20.813Z,15.46
2023-08-28T19:55:43.396Z,15.26
2023-08-28T19:59:06.691Z,15.36
2023-08-28T20:02:32.428Z,15.54
2023-08-28T20:06:08.053Z,15.60
2023-08-28T20:09:31.758Z,15.62
2023-08-28T20:12:55.127Z,15.70
2023-08-28T20:16:17.750Z,15.73
2023-08-28T20:19:40.310Z,15.79
2023-08-28T20:23:02.914Z,15.82
2023-08-28T20:26:29.511Z,15.82
2023-08-28T20:29:52.079Z,15.78
2023-08-28T20:33:15.538Z,15.84
2023-08-28T20:36:40.570Z,15.84
2023-08-28T20:40:04.253Z,15.90
2023-08-28T20:43:27.422Z,15.97
2023-08-28T20:46:50.694Z,15.92
2023-08-28T20:50:13.212Z,15.89
2023-08-28T20:53:35.572Z,15.89
2023-08-28T20:56:57.980Z,15.77
2023-08-28T21:00:20.421Z,15.74
2023-08-28T21:03:43.413Z,15.63
2023-08-28T21:07:05.989Z,15.57
2023-08-28T21:10:28.248Z,15.42
2023-08-28T21:13:50.502Z,15.53
2023-08-28T21:17:12.738Z,15.48
2023-08-28T21:20:34.994Z,15.31
2023-08-28T21:23:57.314Z,15.14
2023-08-28T21:27:19.616Z,15.06
2023-08-28T21:30:51.738Z,14.91
2023-08-28T21:34:18.958Z,14.88
2023-08-28T21:37:41.581Z,14.77
2023-08-28T21:41:06.734Z,14.72
2023-08-28T21:44:32.169Z,14.64
2023-08-28T21:48:04.032Z,14.58
2023-08-28T21:51:45.085Z,14.50
2023-08-28T21:55:32.460Z,14.42
2023-08-28T21:59:13.708Z,14.41
2023-08-28T22:02:54.682Z,14.36
2023-08-28T22:06:35.930Z,14.17
2023-08-28T22:09:58.484Z,14.13
2023-08-28T22:13:27.681Z,14.08
2023-08-28T22:16:50.680Z,13.99
2023-08-28T22:20:15.114Z,13.92
2023-08-28T22:23:41.230Z,13.87
2023-08-28T22:27:03.824Z,13.79
2023-08-28T22:30:26.109Z,13.72
2023-08-28T22:33:48.434Z,13.63
2023-08-28T22:37:10.681Z,13.60
2023-08-28T22:40:32.921Z,13.59
2023-08-28T22:43:58.124Z,13.56
2023-08-28T22:47:20.617Z,13.57
2023-08-28T22:50:42.933Z,13.59
2023-08-28T22:54:07.913Z,13.70
2023-08-28T22:57:35.294Z,13.84
2023-08-28T23:01:01.172Z,13.91
2023-08-28T23:04:23.592Z,13.95
2023-08-28T23:07:53.348Z,14.00
2023-08-28T23:11:22.205Z,13.89
2023-08-28T23:14:44.551Z,13.99
2023-08-28T23:18:14.247Z,13.94
2023-08-28T23:21:42.129Z,13.89
2023-08-28T23:25:07.543Z,13.87
2023-08-28T23:28:32.197Z,13.88
2023-08-28T23:31:55.702Z,13.83
2023-08-28T23:35:19.100Z,13.83
2023-08-28T23:38:41.482Z,13.86
2023-08-28T23:42:04.124Z,13.88
2023-08-28T23:45:26.417Z,13.82
2023-08-28T23:48:51.736Z,13.91
2023-08-28T23:52:14.156Z,13.80
2023-08-28T23:55:36.537Z,13.84
2023-08-28T23:59:03.095Z,13.33
